createdAt,value
2023-03-24T00:01:27.578Z,18.00
2023-03-24T00:03:56.106Z,20.50
2023-03-24T00:06:24.605Z,20.25
2023-03-24T00:08:53.995Z,18.25
2023-03-24T00:11:22.486Z,19.25
2023-03-24T00:13:51.272Z,20.25
2023-03-24T00:16:22.569Z,19.25
2023-03-24T00:18:54.473Z,19.75
2023-03-24T00:21:28.030Z,20.00
2023-03-24T00:23:59.537Z,20.75
2023-03-24T00:26:29.228Z,19.50
2023-03-24T00:28:58.244Z,21.25
2023-03-24T00:31:27.296Z,20.25
2023-03-24T00:33:55.856Z,21.00
2023-03-24T00:36:27.078Z,21.00
2023-03-24T00:38:56.430Z,21.00
2023-03-24T00:41:27.763Z,21.25
2023-03-24T00:44:01.273Z,20.00
2023-03-24T00:46:29.950Z,23.00
2023-03-24T00:49:06.559Z,21.00
2023-03-24T00:51:39.722Z,21.25
2023-03-24T00:54:10.536Z,22.00
2023-03-24T00:56:41.640Z,21.25
2023-03-24T00:59:11.220Z,22.00
2023-03-24T01:01:41.998Z,21.00
2023-03-24T01:04:11.287Z,21.25
2023-03-24T01:06:42.046Z,21.75
2023-03-24T01:09:11.516Z,20.50
2023-03-24T01:11:42.440Z,20.00
2023-03-24T01:14:12.793Z,20.00
2023-03-24T01:16:43.026Z,19.00
2023-03-24T01:19:11.913Z,21.25
2023-03-24T01:21:41.017Z,19.00
2023-03-24T01:24:09.530Z,19.50
2023-03-24T01:26:37.954Z,19.25
2023-03-24T01:29:06.940Z,21.00
2023-03-24T01:31:35.544Z,19.00
2023-03-24T01:34:04.460Z,19.25
2023-03-24T01:36:33.313Z,19.00
2023-03-24T01:39:02.248Z,19.00
2023-03-24T01:41:36.803Z,19.25
2023-03-24T01:44:25.025Z,21.00
2023-03-24T01:46:53.405Z,19.00
2023-03-24T01:49:22.427Z,19.50
2023-03-24T01:51:56.362Z,19.75
2023-03-24T01:54:33.713Z,20.25
2023-03-24T01:57:07.915Z,21.00
2023-03-24T01:59:41.186Z,19.50
2023-03-24T02:02:10.854Z,18.25
2023-03-24T02:04:43.795Z,19.00
2023-03-24T02:07:33.382Z,18.25
2023-03-24T02:10:15.948Z,19.75
2023-03-24T02:12:45.962Z,19.25
2023-03-24T02:15:17.312Z,19.00
2023-03-24T02:17:58.161Z,21.00
2023-03-24T02:20:50.489Z,18.25
2023-03-24T02:23:49.232Z,17.50
2023-03-24T02:26:35.570Z,19.75
2023-03-24T02:29:25.473Z,17.75
2023-03-24T02:32:11.171Z,16.75
2023-03-24T02:34:51.893Z,19.00
2023-03-24T02:37:46.960Z,18.25
2023-03-24T02:41:13.444Z,17.25
2023-03-24T02:44:02.321Z,18.25
2023-03-24T02:46:57.363Z,18.50
2023-03-24T02:49:36.237Z,16.75
2023-03-24T02:52:24.672Z,17.00
2023-03-24T02:55:26.158Z,18.00
2023-03-24T02:58:09.070Z,19.00
2023-03-24T03:00:50.645Z,18.00
2023-03-24T03:03:35.519Z,16.50
2023-03-24T03:06:10.261Z,18.00
2023-03-24T03:08:40.312Z,18.50
2023-03-24T03:11:14.355Z,19.00
2023-03-24T03:13:46.201Z,19.00
2023-03-24T03:16:22.310Z,18.25
2023-03-24T03:18:57.289Z,17.25
2023-03-24T03:21:29.342Z,18.00
2023-03-24T03:24:07.801Z,17.00
2023-03-24T03:26:37.324Z,16.50
2023-03-24T03:29:14.047Z,18.50
2023-03-24T03:32:00.165Z,15.75
2023-03-24T03:35:01.345Z,19.50
2023-03-24T03:38:05.116Z,19.75
2023-03-24T03:40:56.779Z,17.50
2023-03-24T03:43:26.845Z,19.25
2023-03-24T03:45:56.652Z,18.50
2023-03-24T03:48:27.393Z,17.50
2023-03-24T03:51:10.302Z,19.50
2023-03-24T03:54:04.016Z,18.50
2023-03-24T03:56:34.649Z,19.25
2023-03-24T03:59:03.992Z,17.25
2023-03-24T04:01:38.056Z,17.25
2023-03-24T04:04:34.295Z,18.50
2023-03-24T04:07:14.742Z,16.75
2023-03-24T04:10:22.719Z,17.25
2023-03-24T04:13:06.220Z,17.50
2023-03-24T04:15:48.313Z,16.50
2023-03-24T04:18:53.431Z,16.75
2023-03-24T04:21:49.536Z,16.25
2023-03-24T04:24:28.355Z,16.75
2023-03-24T04:27:07.676Z,16.50
2023-03-24T04:29:59.180Z,18.00
2023-03-24T04:32:42.605Z,18.50
2023-03-24T04:35:21.606Z,18.25
2023-03-24T04:37:50.951Z,19.25
2023-03-24T04:40:21.964Z,15.75
2023-03-24T04:42:57.122Z,14.50
2023-03-24T04:45:26.733Z,16.75
2023-03-24T04:47:59.740Z,16.00
2023-03-24T04:50:44.196Z,14.00
2023-03-24T04:53:12.794Z,13.75
2023-03-24T04:56:01.605Z,15.50
2023-03-24T04:58:30.805Z,15.50
2023-03-24T05:00:59.603Z,16.25
2023-03-24T05:03:28.019Z,15.50
2023-03-24T05:05:56.401Z,16.25
2023-03-24T05:08:25.040Z,17.50
2023-03-24T05:10:53.409Z,15.75
2023-03-24T05:13:21.771Z,14.75
2023-03-24T05:15:50.822Z,17.25
2023-03-24T05:18:19.145Z,16.25
2023-03-24T05:20:47.538Z,15.50
2023-03-24T05:23:16.082Z,16.75
2023-03-24T05:25:44.813Z,14.25
2023-03-24T05:28:13.413Z,17.00
2023-03-24T05:30:41.917Z,16.00
2023-03-24T05:33:12.792Z,14.75
2023-03-24T05:35:41.451Z,17.00
2023-03-24T05:38:10.106Z,16.50
2023-03-24T05:40:38.759Z,16.75
2023-03-24T05:43:09.065Z,16.75
2023-03-24T05:45:37.456Z,18.25
2023-03-24T05:48:06.362Z,16.75
2023-03-24T05:50:35.231Z,15.75
2023-03-24T05:53:03.633Z,15.00
2023-03-24T05:55:32.005Z,17.25
2023-03-24T05:58:02.977Z,17.75
2023-03-24T06:00:32.754Z,18.00
2023-03-24T06:03:04.186Z,14.75
2023-03-24T06:05:34.388Z,17.00
2023-03-24T06:08:02.754Z,14.25
2023-03-24T06:10:31.150Z,19.25
2023-03-24T06:12:59.608Z,16.00
2023-03-24T06:15:28.666Z,14.50
2023-03-24T06:17:57.184Z,15.75
2023-03-24T06:20:25.562Z,16.75
2023-03-24T06:22:55.374Z,15.75
2023-03-24T06:25:27.127Z,16.50
2023-03-24T06:27:55.682Z,15.00
2023-03-24T06:30:24.054Z,15.75
2023-03-24T06:32:52.542Z,16.75
2023-03-24T06:35:20.971Z,15.75
2023-03-24T06:37:49.366Z,17.50
2023-03-24T06:40:18.477Z,16.50
2023-03-24T06:42:47.227Z,15.75
2023-03-24T06:45:15.625Z,15.75
2023-03-24T06:47:44.001Z,17.00
2023-03-24T06:50:13.205Z,15.50
2023-03-24T06:52:42.869Z,16.25
2023-03-24T06:55:11.423Z,16.00
2023-03-24T06:57:40.025Z,18.00
2023-03-24T07:00:10.047Z,18.75
2023-03-24T07:02:39.291Z,18.50
2023-03-24T07:05:09.902Z,16.75
2023-03-24T07:08:16.883Z,16.25
2023-03-24T07:10:27.342Z,17.25
2023-03-24T07:12:55.797Z,16.75
2023-03-24T07:15:24.415Z,16.00
2023-03-24T07:17:53.026Z,17.50
2023-03-24T07:20:21.761Z,15.75
2023-03-24T07:22:50.208Z,16.75
2023-03-24T07:25:21.386Z,16.00
2023-03-24T07:27:49.944Z,17.25
2023-03-24T07:30:24.243Z,15.50
2023-03-24T07:32:58.106Z,13.75
2023-03-24T07:35:26.861Z,15.50
2023-03-24T07:37:59.416Z,14.50
2023-03-24T07:40:27.904Z,16.50
2023-03-24T07:42:56.367Z,17.00
2023-03-24T07:45:24.811Z,16.50
2023-03-24T07:47:53.271Z,16.75
2023-03-24T07:50:21.880Z,17.00
2023-03-24T07:52:51.450Z,15.50
2023-03-24T07:55:19.877Z,17.25
2023-03-24T07:57:49.718Z,15.50
2023-03-24T08:00:19.296Z,15.25
2023-03-24T08:02:50.689Z,17.50
2023-03-24T08:05:23.149Z,13.00
2023-03-24T08:07:56.549Z,13.75
2023-03-24T08:10:30.365Z,13.50
2023-03-24T08:12:59.785Z,14.25
2023-03-24T08:15:28.903Z,14.00
2023-03-24T08:17:58.006Z,14.50
2023-03-24T08:20:28.070Z,12.75
2023-03-24T08:22:56.915Z,16.75
2023-03-24T08:25:27.734Z,14.75
2023-03-24T08:27:56.893Z,16.00
2023-03-24T08:30:29.065Z,16.75
2023-03-24T08:33:00.454Z,12.75
2023-03-24T08:35:32.687Z,15.75
2023-03-24T08:38:06.081Z,14.75
2023-03-24T08:40:36.119Z,17.00
2023-03-24T08:43:09.521Z,16.50
2023-03-24T08:45:38.597Z,15.75
2023-03-24T08:48:09.298Z,14.50
2023-03-24T08:50:41.124Z,16.25
2023-03-24T08:53:10.592Z,15.50
2023-03-24T08:56:34.297Z,14.50
2023-03-24T08:59:02.813Z,14.75
2023-03-24T09:01:31.328Z,14.25
2023-03-24T09:04:00.484Z,17.00
2023-03-24T09:06:28.937Z,14.50
2023-03-24T09:08:57.592Z,16.50
2023-03-24T09:11:26.129Z,16.00
2023-03-24T09:13:54.743Z,14.75
2023-03-24T09:16:24.242Z,16.25
2023-03-24T09:18:52.804Z,16.50
2023-03-24T09:21:21.276Z,14.25
2023-03-24T09:23:49.702Z,15.25
2023-03-24T09:26:18.368Z,15.00
2023-03-24T09:28:46.843Z,17.50
2023-03-24T09:31:15.278Z,16.75
2023-03-24T09:33:43.707Z,15.50
2023-03-24T09:36:12.618Z,18.00
2023-03-24T09:38:42.212Z,16.25
2023-03-24T09:41:25.945Z,16.25
2023-03-24T09:44:01.877Z,17.50
2023-03-24T09:46:40.329Z,15.25
2023-03-24T09:49:17.644Z,15.75
2023-03-24T09:51:47.944Z,16.00
2023-03-24T09:54:29.769Z,16.25
2023-03-24T09:56:59.508Z,16.25
2023-03-24T09:59:36.386Z,14.75
2023-03-24T10:02:19.400Z,15.75
2023-03-24T10:04:48.648Z,16.50
2023-03-24T10:07:27.220Z,16.00
2023-03-24T10:10:02.333Z,16.75
2023-03-24T10:12:38.450Z,16.00
2023-03-24T10:15:37.578Z,16.75
2023-03-24T10:18:29.786Z,15.75
2023-03-24T10:21:08.377Z,15.75
2023-03-24T10:23:57.957Z,16.00
2023-03-24T10:26:48.357Z,16.00
2023-03-24T10:29:33.518Z,14.50
2023-03-24T10:32:30.866Z,16.25
2023-03-24T10:35:08.533Z,15.25
2023-03-24T10:37:38.128Z,20.00
2023-03-24T10:40:18.993Z,23.25
2023-03-24T10:43:06.258Z,26.25
2023-03-24T10:45:38.051Z,24.25
2023-03-24T10:48:08.378Z,22.50
2023-03-24T10:50:39.104Z,19.25
2023-03-24T10:53:21.526Z,17.00
2023-03-24T10:55:51.715Z,16.25
2023-03-24T10:58:41.935Z,18.75
2023-03-24T11:01:31.480Z,18.50
2023-03-24T11:04:06.721Z,17.50
2023-03-24T11:06:35.467Z,15.25
2023-03-24T11:09:22.440Z,17.75
2023-03-24T11:11:53.600Z,17.50
2023-03-24T11:14:28.263Z,17.50
2023-03-24T11:17:16.639Z,16.75
2023-03-24T11:19:58.917Z,17.75
2023-03-24T11:22:28.124Z,17.75
2023-03-24T11:24:58.852Z,17.50
2023-03-24T11:27:28.535Z,15.25
2023-03-24T11:29:57.257Z,16.75
2023-03-24T11:32:30.804Z,16.50
2023-03-24T11:35:18.304Z,17.50
2023-03-24T11:37:47.727Z,16.50
2023-03-24T11:40:26.923Z,17.25
2023-03-24T11:42:55.269Z,17.50
2023-03-24T11:45:35.500Z,18.25
2023-03-24T11:48:13.109Z,18.00
2023-03-24T11:50:43.204Z,17.00
2023-03-24T11:53:34.265Z,19.00
2023-03-24T11:56:18.095Z,18.00
2023-03-24T11:58:58.532Z,18.00
2023-03-24T12:01:33.490Z,15.75
2023-03-24T12:04:20.076Z,18.50
2023-03-24T12:06:57.815Z,18.00
2023-03-24T12:09:49.256Z,17.50
2023-03-24T12:12:47.824Z,15.25
2023-03-24T12:15:39.112Z,17.25
2023-03-24T12:18:25.562Z,17.25
2023-03-24T12:21:05.602Z,17.25
2023-03-24T12:23:39.975Z,17.00
2023-03-24T12:26:23.606Z,20.50
2023-03-24T12:29:41.757Z,18.00
2023-03-24T12:32:31.777Z,18.50
2023-03-24T12:35:52.269Z,19.00
2023-03-24T12:38:29.352Z,20.75
2023-03-24T12:41:15.896Z,18.75
2023-03-24T12:44:08.343Z,19.25
2023-03-24T12:46:47.618Z,19.25
2023-03-24T12:49:35.350Z,17.25
2023-03-24T12:52:06.700Z,18.50
2023-03-24T12:54:50.612Z,20.00
2023-03-24T12:57:20.798Z,19.75
2023-03-24T12:59:59.020Z,21.25
2023-03-24T13:02:32.063Z,20.50
2023-03-24T13:05:28.612Z,18.75
2023-03-24T13:08:03.531Z,17.75
2023-03-24T13:10:41.561Z,20.50
2023-03-24T13:13:13.080Z,18.75
2023-03-24T13:15:53.642Z,20.75
2023-03-24T13:18:52.014Z,19.25
2023-03-24T13:21:22.656Z,20.25
2023-03-24T13:24:24.332Z,21.00
2023-03-24T13:27:24.643Z,20.25
2023-03-24T13:29:59.182Z,19.75
2023-03-24T13:32:36.451Z,19.50
2023-03-24T13:35:37.032Z,21.00
2023-03-24T13:38:21.351Z,21.00
2023-03-24T13:40:54.794Z,21.50
2023-03-24T13:43:26.237Z,21.50
2023-03-24T13:46:07.280Z,20.75
2023-03-24T13:48:45.696Z,23.25
2023-03-24T13:51:33.227Z,21.25
2023-03-24T13:54:25.244Z,21.25
2023-03-24T13:56:59.317Z,22.00
2023-03-24T14:00:00.672Z,20.75
2023-03-24T14:02:32.325Z,21.25
2023-03-24T14:05:37.780Z,19.50
2023-03-24T14:08:09.219Z,18.25
2023-03-24T14:10:52.516Z,20.50
2023-03-24T14:13:22.217Z,19.25
2023-03-24T14:15:58.446Z,21.50
2023-03-24T14:18:27.071Z,20.75
2023-03-24T14:20:58.720Z,19.25
2023-03-24T14:23:45.090Z,21.75
2023-03-24T14:26:36.014Z,20.00
2023-03-24T14:29:04.755Z,19.00
2023-03-24T14:31:37.103Z,20.75
2023-03-24T14:34:14.906Z,19.75
2023-03-24T14:36:45.978Z,20.25
2023-03-24T14:39:29.230Z,20.00
2023-03-24T14:41:59.219Z,20.00
2023-03-24T14:44:46.216Z,20.50
2023-03-24T14:47:22.710Z,21.50
2023-03-24T14:49:54.797Z,20.00
2023-03-24T14:52:46.734Z,20.25
2023-03-24T14:55:20.184Z,19.75
2023-03-24T14:58:03.618Z,18.50
2023-03-24T15:00:47.159Z,19.75
2023-03-24T15:03:46.686Z,19.00
2023-03-24T15:06:17.081Z,20.50
2023-03-24T15:09:11.230Z,19.00
2023-03-24T15:11:42.681Z,20.50
2023-03-24T15:14:23.687Z,19.00
2023-03-24T15:16:59.697Z,18.50
2023-03-24T15:19:32.862Z,19.50
2023-03-24T15:22:20.076Z,20.00
2023-03-24T15:24:50.591Z,18.00
2023-03-24T15:27:25.775Z,18.00
2023-03-24T15:30:00.247Z,17.50
2023-03-24T15:32:32.806Z,19.75
2023-03-24T15:35:09.766Z,18.50
2023-03-24T15:37:43.819Z,19.75
2023-03-24T15:40:27.559Z,20.00
2023-03-24T15:42:58.227Z,19.50
2023-03-24T15:45:31.380Z,18.75
2023-03-24T15:48:05.867Z,18.00
2023-03-24T15:50:38.821Z,20.25
2023-03-24T15:53:16.780Z,18.75
2023-03-24T15:55:45.371Z,20.00
2023-03-24T15:58:24.844Z,20.25
2023-03-24T16:01:03.748Z,19.75
2023-03-24T16:03:33.250Z,18.75
2023-03-24T16:06:01.835Z,20.25
2023-03-24T16:08:36.892Z,19.75
2023-03-24T16:11:12.775Z,19.25
2023-03-24T16:13:43.799Z,19.75
2023-03-24T16:16:15.201Z,19.50
2023-03-24T16:18:45.731Z,20.00
2023-03-24T16:21:22.778Z,19.50
2023-03-24T16:23:53.572Z,19.25
2023-03-24T16:26:27.248Z,19.75
2023-03-24T16:28:58.835Z,19.50
2023-03-24T16:31:36.994Z,20.50
2023-03-24T16:34:05.330Z,20.25
2023-03-24T16:36:33.938Z,19.25
2023-03-24T16:39:02.944Z,22.00
2023-03-24T16:41:31.370Z,19.50
2023-03-24T16:43:59.716Z,19.25
2023-03-24T16:46:28.069Z,20.00
2023-03-24T16:48:57.395Z,20.00
2023-03-24T16:51:25.796Z,19.50
2023-03-24T16:53:54.377Z,19.75
2023-03-24T16:56:23.999Z,19.50
2023-03-24T16:58:56.320Z,19.50
2023-03-24T17:01:36.618Z,21.25
2023-03-24T17:04:10.407Z,19.25
2023-03-24T17:06:41.977Z,21.25
2023-03-24T17:09:10.970Z,22.00
2023-03-24T17:11:42.893Z,20.25
2023-03-24T17:14:13.229Z,20.00
2023-03-24T17:16:44.844Z,20.50
2023-03-24T17:19:15.153Z,20.25
2023-03-24T17:22:01.204Z,19.50
2023-03-24T17:24:31.186Z,19.50
2023-03-24T17:26:59.610Z,21.25
2023-03-24T17:29:27.967Z,20.25
2023-03-24T17:31:56.671Z,21.75
2023-03-24T17:34:25.086Z,21.75
2023-03-24T17:36:53.454Z,21.50
2023-03-24T17:39:22.841Z,21.25
2023-03-24T17:41:51.325Z,22.75
2023-03-24T17:44:19.703Z,21.00
2023-03-24T17:46:48.103Z,21.00
2023-03-24T17:49:16.530Z,19.50
2023-03-24T17:51:44.996Z,21.75
2023-03-24T17:54:14.270Z,22.00
2023-03-24T17:56:42.695Z,22.75
2023-03-24T17:59:11.129Z,20.00
2023-03-24T18:01:41.279Z,23.25
2023-03-24T18:04:10.100Z,22.75
2023-03-24T18:06:39.417Z,20.75
2023-03-24T18:09:08.376Z,22.25
2023-03-24T18:11:37.414Z,22.00
2023-03-24T18:14:05.818Z,21.75
2023-03-24T18:16:36.297Z,20.25
2023-03-24T18:19:05.187Z,21.50
2023-03-24T18:21:34.610Z,23.00
2023-03-24T18:24:03.053Z,21.75
2023-03-24T18:26:31.827Z,21.00
2023-03-24T18:29:00.328Z,22.75
2023-03-24T18:31:28.734Z,21.75
2023-03-24T18:33:57.067Z,21.00
2023-03-24T18:36:29.997Z,21.50
2023-03-24T18:39:05.383Z,20.25
2023-03-24T18:41:37.828Z,23.00
2023-03-24T18:44:09.154Z,20.75
2023-03-24T18:46:37.885Z,20.50
2023-03-24T18:49:08.002Z,22.00
2023-03-24T18:51:36.780Z,22.00
2023-03-24T18:54:05.294Z,20.75
2023-03-24T18:56:33.766Z,21.75
2023-03-24T18:59:02.714Z,21.25
2023-03-24T19:01:33.869Z,22.25
2023-03-24T19:04:03.271Z,21.75
2023-03-24T19:06:36.084Z,21.25
2023-03-24T19:09:06.215Z,22.50
2023-03-24T19:11:34.566Z,22.25
2023-03-24T19:14:03.297Z,22.50
2023-03-24T19:16:32.256Z,22.25
2023-03-24T19:19:01.893Z,21.75
2023-03-24T19:21:30.356Z,20.75
2023-03-24T19:23:58.922Z,21.75
2023-03-24T19:26:27.334Z,20.75
2023-03-24T19:28:55.666Z,22.50
2023-03-24T19:31:24.108Z,22.00
2023-03-24T19:33:53.314Z,20.25
2023-03-24T19:36:21.708Z,21.25
2023-03-24T19:38:50.142Z,22.50
2023-03-24T19:41:18.490Z,22.75
2023-03-24T19:43:47.300Z,21.50
2023-03-24T19:46:17.411Z,21.50
2023-03-24T19:48:45.799Z,22.50
2023-03-24T19:51:14.201Z,21.50
2023-03-24T19:53:42.628Z,21.75
2023-03-24T19:56:11.631Z,21.75
2023-03-24T19:58:40.059Z,22.75
2023-03-24T20:01:08.488Z,22.00
2023-03-24T20:03:37.561Z,21.50
2023-03-24T20:06:09.998Z,22.75
2023-03-24T20:08:39.415Z,22.25
2023-03-24T20:11:09.659Z,21.50
2023-03-24T20:13:38.205Z,21.75
2023-03-24T20:16:06.906Z,22.00
2023-03-24T20:18:36.622Z,22.25
2023-03-24T20:21:07.213Z,21.75
2023-03-24T20:23:35.631Z,22.25
2023-03-24T20:26:04.070Z,22.50
2023-03-24T20:28:32.459Z,21.50
2023-03-24T20:31:03.389Z,22.50
2023-03-24T20:33:32.262Z,22.50
2023-03-24T20:36:01.211Z,23.00
2023-03-24T20:38:30.141Z,22.25
2023-03-24T20:41:06.421Z,24.25
2023-03-24T20:43:37.315Z,22.00
2023-03-24T20:46:08.587Z,22.75
2023-03-24T20:48:37.573Z,21.00
2023-03-24T20:51:06.743Z,23.00
2023-03-24T20:53:35.964Z,22.00
2023-03-24T20:56:07.763Z,21.75
2023-03-24T20:58:39.259Z,23.50
2023-03-24T21:01:12.675Z,23.75
2023-03-24T21:03:41.802Z,22.50
2023-03-24T21:06:11.768Z,24.00
2023-03-24T21:08:43.935Z,21.75
2023-03-24T21:11:13.672Z,22.50
2023-03-24T21:13:42.177Z,25.00
2023-03-24T21:16:12.536Z,22.00
2023-03-24T21:18:44.577Z,23.00
2023-03-24T21:21:13.924Z,22.00
2023-03-24T21:23:43.821Z,24.25
2023-03-24T21:26:18.184Z,23.00
2023-03-24T21:28:46.801Z,23.25
2023-03-24T21:31:23.160Z,24.25
2023-03-24T21:33:52.637Z,22.50
2023-03-24T21:36:22.353Z,22.00
2023-03-24T21:38:53.028Z,25.00
2023-03-24T21:41:21.914Z,23.25
2023-03-24T21:43:55.003Z,24.00
2023-03-24T21:46:27.624Z,23.50
2023-03-24T21:49:00.156Z,23.50
2023-03-24T21:51:37.556Z,24.50
2023-03-24T21:54:10.670Z,23.00
2023-03-24T21:56:39.169Z,24.00
2023-03-24T21:59:07.525Z,23.25
2023-03-24T22:01:36.891Z,23.75
2023-03-24T22:04:06.764Z,23.75
2023-03-24T22:06:38.510Z,24.00
2023-03-24T22:09:08.171Z,23.50
2023-03-24T22:11:37.182Z,24.25
2023-03-24T22:14:05.635Z,23.25
2023-03-24T22:16:34.031Z,23.75
2023-03-24T22:19:02.506Z,25.00
2023-03-24T22:21:30.906Z,22.50
2023-03-24T22:23:59.320Z,22.25
2023-03-24T22:26:27.709Z,23.25
2023-03-24T22:28:57.143Z,23.00
2023-03-24T22:31:25.618Z,25.00
2023-03-24T22:33:54.668Z,24.25
2023-03-24T22:36:23.077Z,24.25
2023-03-24T22:38:51.414Z,24.00
2023-03-24T22:41:19.767Z,25.25
2023-03-24T22:43:48.120Z,23.75
2023-03-24T22:46:16.469Z,25.00
2023-03-24T22:48:45.089Z,26.50
2023-03-24T22:51:17.777Z,22.25
2023-03-24T22:53:46.990Z,24.50
2023-03-24T22:56:16.616Z,24.00
2023-03-24T22:58:44.989Z,23.00
2023-03-24T23:01:13.428Z,23.50
2023-03-24T23:03:41.930Z,23.50
2023-03-24T23:06:12.656Z,23.75
2023-03-24T23:08:41.160Z,23.75
2023-03-24T23:11:10.338Z,24.25
2023-03-24T23:13:39.720Z,25.50
2023-03-24T23:16:09.165Z,25.00
2023-03-24T23:18:41.365Z,24.00
2023-03-24T23:21:12.468Z,24.75
2023-03-24T23:23:42.382Z,23.25
2023-03-24T23:26:25.847Z,24.75
2023-03-24T23:28:55.157Z,24.50
2023-03-24T23:31:28.038Z,25.00
2023-03-24T23:33:59.153Z,25.25
2023-03-24T23:36:29.135Z,25.00
2023-03-24T23:38:57.575Z,24.00
2023-03-24T23:41:26.069Z,23.00
2023-03-24T23:43:55.341Z,24.75
2023-03-24T23:46:24.848Z,23.25
2023-03-24T23:48:53.558Z,25.00
2023-03-24T23:51:22.168Z,26.00
2023-03-24T23:53:50.511Z,26.00
2023-03-24T23:56:22.372Z,26.00
2023-03-24T23:58:50.785Z,23.25
